WetterOnline ( http://www.wetteronline.de )

Wetter aktuell Pforzheim

Aktuelles Wetter: Mühlacker (245m)

6-stündlich | Neueste Meldungen
Ortszeit Temperatur Wetter
So, 19.08. 14:00 27.9° C leicht bewölkt
So, 19.08. 8:00 17.5° C bewölkt
So, 19.08. 2:00 17.7° C bewölkt
Sa, 18.08. 20:00 25.7° C leicht bewölkt
Sa, 18.08. 14:00 25.9° C wolkenlos
Sa, 18.08. 8:00 16.7° C wolkenlos
Sa, 18.08. 2:00 19.4° C bedeckt
Fr, 17.08. 20:00 25.7° C bewölkt
Ortszeit Temperatur Wetter
So, 19.08. 19:00 28.6° C leicht bewölkt
So, 19.08. 18:50 28.6° C wolkig
So, 19.08. 18:40 28.7° C wolkig
So, 19.08. 18:30 29.0° C wolkig
So, 19.08. 18:20 29.0° C wolkig
So, 19.08. 18:10 29.2° C wolkig
So, 19.08. 18:00 29.5° C fast wolkenlos
So, 19.08. 17:30 29.6° C fast wolkenlos
So, 19.08. 17:00 28.9° C leicht bewölkt
So, 19.08. 16:30 29.6° C fast wolkenlos
So, 19.08. 16:00 29.2° C leicht bewölkt
Ortszeit Relative Feuchte Sichtweite
So, 19.08. 14:00 33% 27 km
So, 19.08. 8:00 71% 26 km
So, 19.08. 2:00 74% 28 km
Sa, 18.08. 20:00 48% 27 km
Sa, 18.08. 14:00 46% 14 km
Sa, 18.08. 8:00 82% 12 km
Sa, 18.08. 2:00 72% 16 km
Fr, 17.08. 20:00 52% 30 km
Ortszeit Relative Feuchte Sichtweite
So, 19.08. 19:00 36% 30 km
So, 19.08. 18:50 36% -
So, 19.08. 18:40 35% -
So, 19.08. 18:30 33% 40 km
So, 19.08. 18:20 33% -
So, 19.08. 18:10 33% -
So, 19.08. 18:00 33% 35 km
So, 19.08. 17:30 31% 35 km
So, 19.08. 17:00 32% 30 km
So, 19.08. 16:30 32% 29 km
So, 19.08. 16:00 32% 24 km
Ortszeit Niederschlagsmenge Niederschlagsart
So, 19.08. 14:00 0.0 l/m2 in 6 Std. -
So, 19.08. 8:00 0.0 l/m2 in 12 Std. -
So, 19.08. 2:00 0.0 l/m2 in 6 Std. -
Sa, 18.08. 20:00 0.0 l/m2 in 12 Std. -
Sa, 18.08. 14:00 0.0 l/m2 in 6 Std. -
Sa, 18.08. 8:00 0.1 l/m2 in 12 Std. -
Sa, 18.08. 2:00 0.1 l/m2 in 6 Std. Regen
Fr, 17.08. 20:00 0.0 l/m2 in 12 Std. -
Ortszeit Niederschlagsmenge Niederschlagsart
So, 19.08. 19:00 0.0 l/m2 in 1 Std. -
So, 19.08. 18:50 keine Meldung -
So, 19.08. 18:40 keine Meldung -
So, 19.08. 18:30 0.0 l/m2 in 1 Std. -
So, 19.08. 18:20 keine Meldung -
So, 19.08. 18:10 keine Meldung -
So, 19.08. 18:00 0.0 l/m2 in 1 Std. -
So, 19.08. 17:30 0.0 l/m2 in 1 Std. -
So, 19.08. 17:00 0.0 l/m2 in 1 Std. -
So, 19.08. 16:30 0.0 l/m2 in 1 Std. -
So, 19.08. 16:00 0.0 l/m2 in 1 Std. -
Ortszeit Stärke Spitze Richtung
km/h Bft. km/h Grad Sektor
So, 19.08. 14:00 7 2 22 330° NW
So, 19.08. 8:00 2 1 6 270° W
So, 19.08. 2:00 0 0 14 - -
Sa, 18.08. 20:00 9 2 28 280° W
Sa, 18.08. 14:00 14 3 29 320° NW
Sa, 18.08. 8:00 4 1 22 290° W
Sa, 18.08. 2:00 13 3 26 300° NW
Fr, 17.08. 20:00 17 3 31 280° W
Ortszeit Stärke Spitze Richtung
km/h Bft. km/h Grad Sektor
So, 19.08. 19:00 14 3 22 290° W
So, 19.08. 18:50 14 3 - 290° W
So, 19.08. 18:40 11 2 - 280° W
So, 19.08. 18:30 13 3 22 300° NW
So, 19.08. 18:20 13 3 - 300° NW
So, 19.08. 18:10 15 3 - 300° NW
So, 19.08. 18:00 9 2 20 250° W
So, 19.08. 17:30 9 2 20 310° NW
So, 19.08. 17:00 13 3 24 300° NW
So, 19.08. 16:30 9 2 22 310° NW
So, 19.08. 16:00 13 3 28 270° W
Ortszeit Untergrenze Bedeckung Gattung
total tief tief mittel hoch
So, 19.08. 14:00 9000 m 4/8 0/8 - - -
So, 19.08. 8:00 1500 m 7/8 7/8 - - -
So, 19.08. 2:00 2100 m 7/8 7/8 - - -
Sa, 18.08. 20:00 3300 m 3/8 3/8 - - -
Sa, 18.08. 14:00 - 0/8 0/8 - - -
Sa, 18.08. 8:00 - 0/8 0/8 - - -
Sa, 18.08. 2:00 3900 m 8/8 8/8 - - -
Fr, 17.08. 20:00 3900 m 7/8 7/8 - - -
Ortszeit Bedeckungsgrad in Achtel und Wolkenuntergrenze
So, 19.08. 19:00 7(12000m)
So, 19.08. 18:50 7(12000m)
So, 19.08. 18:40 8(12000m)
So, 19.08. 18:30 8(12000m)
So, 19.08. 18:20 8(12000m)
So, 19.08. 18:10 7(12000m)
So, 19.08. 18:00 2(12000m)
So, 19.08. 17:30 2(12000m)
So, 19.08. 17:00 3(10500m) 4(12000m)
So, 19.08. 16:30 1(10500m)
So, 19.08. 16:00 2(9000m) 6(9000m)
Ortszeit Luftdruck NN (hPa) Tendenz (hPa in 3 Std.)
So, 19.08. 14:00 1020 - 1,3
So, 19.08. 8:00 1022 + 0,4
So, 19.08. 2:00 1022 - 0,2
Sa, 18.08. 20:00 1020 - 0,1
Sa, 18.08. 14:00 1021 - 0,4
Sa, 18.08. 8:00 1022 + 1,0
Sa, 18.08. 2:00 1020 + 1,2
Fr, 17.08. 20:00 1015 + 1,0
Ortszeit Luftdruck NN (hPa) Tendenz (hPa in 3 Std.)
So, 19.08. 19:00 1018 - 1,2
So, 19.08. 18:50 1018 keine Meldung
So, 19.08. 18:40 1018 keine Meldung
So, 19.08. 18:30 1018 - 1,4
So, 19.08. 18:20 1018 keine Meldung
So, 19.08. 18:10 1018 keine Meldung
So, 19.08. 18:00 1018 - 1,5
So, 19.08. 17:30 1018 - 1,6
So, 19.08. 17:00 1018 - 1,6
So, 19.08. 16:30 1019 - 1,6
So, 19.08. 16:00 1019 - 1,6
Ortszeit Schneehöhe (cm)
So, 19.08. 14:00 -
So, 19.08. 8:00 -
So, 19.08. 2:00 -
Sa, 18.08. 20:00 -
Sa, 18.08. 14:00 -
Sa, 18.08. 8:00 -
Sa, 18.08. 2:00 -
Fr, 17.08. 20:00 -
Ortszeit Schneehöhe (cm)
So, 19.08. 19:00 -
So, 19.08. 18:50 -
So, 19.08. 18:40 -
So, 19.08. 18:30 -
So, 19.08. 18:20 -
So, 19.08. 18:10 -
So, 19.08. 18:00 -
So, 19.08. 17:30 -
So, 19.08. 17:00 -
So, 19.08. 16:30 -
So, 19.08. 16:00 -
Link zu dieser Seite / Seite empfehlen

Das Wetter in ...